Time;durP1;ratioP1;P1;durP2;ratioP2;P2;SDS_P1;SDS_P2;PMS_P1;PMS_P2;Temp;Humidity;BMP_temperature;BMP_pressure;BME280_temperature;BME280_humidity;BME280_pressure;Samples;Min_cycle;Max_cycle;Signal;HPM_P1;HPM_P2
2022/03/13 00:02:02;;;;;;;10.75;6.07;;;16.90;57.60;;;;;;5027492;28;20143;-66
2022/03/13 00:04:28;;;;;;;11.07;6.72;;;17.00;57.60;;;;;;5028506;28;20022;-66
2022/03/13 00:06:56;;;;;;;13.77;6.30;;;16.90;57.60;;;;;;5028135;28;20044;-65
2022/03/13 00:09:22;;;;;;;13.55;6.75;;;16.90;57.70;;;;;;5027742;28;20077;-65
2022/03/13 00:11:53;;;;;;;10.27;5.85;;;16.90;57.70;;;;;;5027857;28;20028;-65
2022/03/13 00:14:23;;;;;;;10.85;5.80;;;16.90;57.70;;;;;;5028285;28;20069;-65
2022/03/13 00:16:50;;;;;;;10.75;5.90;;;16.90;57.60;;;;;;5027198;28;20029;-65
2022/03/13 00:19:19;;;;;;;13.20;6.75;;;16.90;57.70;;;;;;5025875;28;20029;-64
2022/03/13 00:21:52;;;;;;;12.80;6.53;;;16.90;57.70;;;;;;5027710;28;20025;-65
2022/03/13 00:24:20;;;;;;;11.05;6.70;;;16.80;57.70;;;;;;5028117;28;20025;-65
2022/03/13 00:26:51;;;;;;;12.48;7.00;;;16.80;57.60;;;;;;5012464;28;20392;-65
2022/03/13 00:29:18;;;;;;;10.07;5.90;;;16.80;57.70;;;;;;5031828;28;20017;-65
2022/03/13 00:31:44;;;;;;;11.82;6.20;;;16.80;57.70;;;;;;5032104;28;20022;-65
2022/03/13 00:34:09;;;;;;;8.32;5.45;;;16.80;57.70;;;;;;5030980;28;20107;-65
2022/03/13 00:36:35;;;;;;;11.82;6.03;;;16.80;57.60;;;;;;5031840;28;20033;-65
2022/03/13 00:39:01;;;;;;;10.20;6.35;;;16.80;57.60;;;;;;5031775;28;20019;-65
2022/03/13 00:41:26;;;;;;;10.27;6.45;;;16.80;57.70;;;;;;5032243;28;20554;-66
2022/03/13 00:43:52;;;;;;;11.32;5.60;;;16.80;57.60;;;;;;5019563;28;20030;-66
2022/03/13 00:46:17;;;;;;;8.30;5.25;;;16.80;57.70;;;;;;5031830;28;20034;-65
2022/03/13 00:48:43;;;;;;;10.10;6.20;;;16.80;57.70;;;;;;5031149;28;20514;-65
2022/03/13 00:51:08;;;;;;;9.27;5.68;;;16.80;57.70;;;;;;5031371;28;20132;-67
2022/03/13 00:53:34;;;;;;;10.88;5.95;;;16.80;57.70;;;;;;5030889;28;20038;-66
2022/03/13 00:56:00;;;;;;;8.65;5.55;;;16.80;57.70;;;;;;5031531;28;20033;-66
2022/03/13 00:58:25;;;;;;;9.32;5.68;;;16.80;57.70;;;;;;5030888;28;20037;-66
2022/03/13 01:00:51;;;;;;;10.10;6.18;;;16.80;57.60;;;;;;5031044;28;20022;-65
2022/03/13 01:03:34;;;;;;;11.05;6.25;;;16.70;57.60;;;;;;5031587;28;20061;-65
2022/03/13 01:06:00;;;;;;;9.45;5.00;;;16.70;57.70;;;;;;5030214;28;20486;-65
2022/03/13 01:08:26;;;;;;;10.30;6.30;;;16.70;57.70;;;;;;5031495;28;20109;-66
2022/03/13 01:10:53;;;;;;;8.70;5.45;;;16.70;57.70;;;;;;5030970;28;20025;-65
2022/03/13 01:13:20;;;;;;;10.25;5.80;;;16.70;57.70;;;;;;5031276;28;20037;-65
2022/03/13 01:15:46;;;;;;;9.77;5.78;;;16.70;57.70;;;;;;5030745;28;20091;-65
2022/03/13 01:18:12;;;;;;;9.57;5.80;;;16.70;57.80;;;;;;5030794;28;20026;-65
2022/03/13 01:20:38;;;;;;;9.15;5.60;;;16.70;57.80;;;;;;5022817;28;20534;-66
2022/03/13 01:23:04;;;;;;;10.50;5.65;;;16.70;57.70;;;;;;5030108;28;20080;-65
2022/03/13 01:25:29;;;;;;;9.43;5.75;;;16.70;57.70;;;;;;5030323;28;20387;-65
2022/03/13 01:27:55;;;;;;;7.88;4.95;;;16.70;57.70;;;;;;5030180;28;20118;-66
2022/03/13 01:30:20;;;;;;;9.05;5.05;;;16.70;57.80;;;;;;5030810;28;20033;-65
2022/03/13 01:32:53;;;;;;;8.85;5.22;;;16.60;57.70;;;;;;5030603;28;20034;-65
2022/03/13 01:35:20;;;;;;;9.75;4.90;;;16.70;57.70;;;;;;5030482;28;20445;-65
2022/03/13 01:37:47;;;;;;;8.27;4.75;;;16.60;57.70;;;;;;5029092;28;20048;-64
2022/03/13 01:40:19;;;;;;;8.95;5.40;;;16.60;57.70;;;;;;5030445;28;20582;-65
2022/03/13 01:42:47;;;;;;;8.88;5.40;;;16.60;57.80;;;;;;5030626;28;20120;-65
2022/03/13 01:45:15;;;;;;;9.40;5.05;;;16.60;57.70;;;;;;5030786;28;20025;-65
2022/03/13 01:47:41;;;;;;;8.95;5.18;;;16.60;57.80;;;;;;5029925;28;20473;-65
2022/03/13 01:50:09;;;;;;;8.95;5.53;;;16.60;57.80;;;;;;5030688;28;20435;-65
2022/03/13 01:52:36;;;;;;;8.93;5.45;;;16.60;57.70;;;;;;5028972;28;20492;-66
2022/03/13 01:55:03;;;;;;;9.00;5.07;;;16.60;57.80;;;;;;5030447;28;20029;-65
2022/03/13 01:57:29;;;;;;;9.30;5.38;;;16.60;57.80;;;;;;5030073;28;20034;-65
2022/03/13 01:59:56;;;;;;;9.00;5.03;;;16.60;57.80;;;;;;5030301;28;20029;-65
2022/03/13 02:02:23;;;;;;;8.10;5.15;;;16.60;57.80;;;;;;5030120;28;20025;-65
2022/03/13 02:04:54;;;;;;;8.35;5.05;;;16.60;57.80;;;;;;5030319;28;20100;-65
2022/03/13 02:07:25;;;;;;;8.63;5.18;;;16.50;57.70;;;;;;5029963;28;20033;-66
2022/03/13 02:09:51;;;;;;;9.85;5.65;;;16.60;57.80;;;;;;5029740;28;20018;-66
2022/03/13 02:12:18;;;;;;;8.23;5.15;;;16.50;57.70;;;;;;5029798;28;20034;-65
2022/03/13 02:14:44;;;;;;;8.45;5.30;;;16.50;57.70;;;;;;5030907;28;20368;-65
2022/03/13 02:17:10;;;;;;;9.15;5.40;;;16.50;57.70;;;;;;5030207;28;20044;-65
2022/03/13 02:19:35;;;;;;;8.35;4.93;;;16.50;57.80;;;;;;5030828;28;20040;-65
2022/03/13 02:22:02;;;;;;;8.80;5.32;;;16.50;57.80;;;;;;5030880;28;20084;-65
2022/03/13 02:24:28;;;;;;;8.52;5.20;;;16.50;57.80;;;;;;5030131;28;20127;-66
2022/03/13 02:27:00;;;;;;;8.60;5.28;;;16.50;57.80;;;;;;5030773;28;20124;-65
2022/03/13 02:29:27;;;;;;;9.10;4.82;;;16.50;57.80;;;;;;5029350;28;20022;-65
2022/03/13 02:31:52;;;;;;;9.98;5.20;;;16.50;57.80;;;;;;5029575;28;20075;-65
2022/03/13 02:34:20;;;;;;;8.05;4.97;;;16.50;57.90;;;;;;5020835;28;20045;-65
2022/03/13 02:36:51;;;;;;;9.00;5.20;;;16.40;57.80;;;;;;5030259;28;20026;-66
2022/03/13 02:39:17;;;;;;;10.75;6.07;;;16.40;57.80;;;;;;5028817;28;20071;-66
2022/03/13 02:41:43;;;;;;;8.15;4.70;;;16.40;57.80;;;;;;5030451;28;20408;-66
2022/03/13 02:44:11;;;;;;;9.23;5.95;;;16.50;57.90;;;;;;5030498;28;20036;-66
2022/03/13 02:46:54;;;;;;;7.85;4.50;;;16.40;57.80;;;;;;5030028;28;20029;-68
2022/03/13 02:49:22;;;;;;;7.72;4.72;;;16.40;57.90;;;;;;5029981;28;20782;-67
2022/03/13 02:51:50;;;;;;;8.57;5.43;;;16.40;57.90;;;;;;5030038;28;20115;-68
2022/03/13 02:54:16;;;;;;;9.88;5.25;;;16.40;57.90;;;;;;5029718;28;20117;-67
2022/03/13 02:56:43;;;;;;;8.40;5.20;;;16.40;58.00;;;;;;5030429;28;20108;-66
2022/03/13 02:59:09;;;;;;;9.20;5.32;;;16.40;58.00;;;;;;5029115;28;20033;-66
2022/03/13 03:01:37;;;;;;;9.15;5.57;;;16.40;58.00;;;;;;5029755;28;20072;-61
2022/03/13 03:04:03;;;;;;;8.25;5.15;;;16.40;58.00;;;;;;5030029;28;20030;-65
2022/03/13 03:06:30;;;;;;;6.93;4.75;;;16.40;57.80;;;;;;5029987;28;20112;-65
2022/03/13 03:08:56;;;;;;;8.30;4.95;;;16.40;57.80;;;;;;5029816;28;20017;-67
2022/03/13 03:11:22;;;;;;;8.93;4.95;;;16.40;57.80;;;;;;5029330;28;20029;-65
2022/03/13 03:13:48;;;;;;;9.90;5.13;;;16.40;57.80;;;;;;5029597;28;20032;-66
2022/03/13 03:16:15;;;;;;;9.00;5.47;;;16.40;57.80;;;;;;5029958;28;20029;-66
2022/03/13 03:18:41;;;;;;;8.60;5.32;;;16.40;57.80;;;;;;5028166;28;20029;-65
2022/03/13 03:21:07;;;;;;;8.55;5.45;;;16.40;57.80;;;;;;5029500;28;20592;-60
2022/03/13 03:23:34;;;;;;;9.52;5.32;;;16.40;57.80;;;;;;5029682;28;20056;-65
2022/03/13 03:25:59;;;;;;;7.82;4.97;;;16.40;57.90;;;;;;5023546;28;20025;-65
2022/03/13 03:28:25;;;;;;;7.45;5.07;;;16.40;57.80;;;;;;5029447;28;20047;-66
2022/03/13 03:30:51;;;;;;;7.50;4.78;;;16.40;58.00;;;;;;5029113;28;20021;-65
2022/03/13 03:33:16;;;;;;;8.82;5.60;;;16.30;58.00;;;;;;5029456;28;20112;-66
2022/03/13 03:35:42;;;;;;;9.70;5.57;;;16.30;58.10;;;;;;5029582;28;20036;-67
2022/03/13 03:38:08;;;;;;;8.45;5.47;;;16.20;58.00;;;;;;5029433;28;20036;-68
2022/03/13 03:40:34;;;;;;;9.70;5.65;;;16.20;58.00;;;;;;5027927;28;20025;-66
2022/03/13 03:43:03;;;;;;;8.52;5.38;;;16.20;58.10;;;;;;5029160;28;20113;-66
2022/03/13 03:45:29;;;;;;;7.93;4.93;;;16.20;58.10;;;;;;5029198;28;20041;-66
2022/03/13 03:47:54;;;;;;;10.07;5.40;;;16.20;58.00;;;;;;5029345;28;20025;-67
2022/03/13 03:50:20;;;;;;;7.43;4.95;;;16.20;58.00;;;;;;5028882;28;20392;-66
2022/03/13 03:52:47;;;;;;;8.60;5.60;;;16.20;58.10;;;;;;5029557;28;20036;-68
2022/03/13 03:55:14;;;;;;;7.85;5.35;;;16.20;58.10;;;;;;5028764;28;20017;-68
2022/03/13 03:57:40;;;;;;;9.30;5.20;;;16.20;58.10;;;;;;5028941;28;20029;-64
2022/03/13 04:00:08;;;;;;;7.93;5.22;;;16.20;58.10;;;;;;5028899;28;20085;-65
2022/03/13 04:02:34;;;;;;;8.27;5.05;;;16.20;58.00;;;;;;5028763;28;20468;-64
2022/03/13 04:05:00;;;;;;;10.98;6.30;;;16.20;58.00;;;;;;5029276;28;20053;-63
2022/03/13 04:07:26;;;;;;;9.75;5.88;;;16.20;58.00;;;;;;5028827;28;20352;-64
2022/03/13 04:09:52;;;;;;;7.78;4.75;;;16.20;57.90;;;;;;5028920;28;20029;-65
2022/03/13 04:12:18;;;;;;;7.60;5.00;;;16.20;57.90;;;;;;5028707;28;20030;-66
2022/03/13 04:14:44;;;;;;;9.60;5.53;;;16.20;57.90;;;;;;5029027;28;20723;-65
2022/03/13 04:17:10;;;;;;;8.82;5.40;;;16.30;57.90;;;;;;5028135;28;20041;-64
2022/03/13 04:19:36;;;;;;;10.90;5.03;;;16.20;58.00;;;;;;5029089;28;20123;-64
2022/03/13 04:22:02;;;;;;;8.40;5.53;;;16.20;57.90;;;;;;5028472;28;20033;-63
2022/03/13 04:24:31;;;;;;;8.18;5.22;;;16.20;57.90;;;;;;5027838;28;20033;-63
2022/03/13 04:26:57;;;;;;;8.30;5.10;;;16.20;58.00;;;;;;5027012;28;20122;-66
2022/03/13 04:29:23;;;;;;;7.55;4.97;;;16.20;58.00;;;;;;5028397;28;20535;-68
2022/03/13 04:31:52;;;;;;;8.75;4.90;;;16.10;57.90;;;;;;5028669;28;20025;-67
2022/03/13 04:34:18;;;;;;;8.57;5.25;;;16.10;58.00;;;;;;5028661;28;20041;-67
2022/03/13 04:36:45;;;;;;;8.65;5.20;;;16.10;58.20;;;;;;5028183;28;20491;-66
2022/03/13 04:39:11;;;;;;;7.30;4.95;;;16.10;58.30;;;;;;5028790;28;20472;-67
2022/03/13 04:41:40;;;;;;;9.25;5.38;;;16.10;58.30;;;;;;5019484;28;20039;-67
2022/03/13 04:44:08;;;;;;;7.68;5.43;;;16.10;58.20;;;;;;5028225;28;20017;-66
2022/03/13 04:46:34;;;;;;;7.88;4.88;;;16.10;58.20;;;;;;5027748;28;20013;-65
2022/03/13 04:48:59;;;;;;;8.57;5.10;;;16.00;58.00;;;;;;5028717;28;20387;-66
2022/03/13 04:51:25;;;;;;;8.00;5.40;;;16.00;58.10;;;;;;5028145;28;20057;-66
2022/03/13 04:53:51;;;;;;;9.52;5.15;;;16.10;58.10;;;;;;5028448;28;20104;-68
2022/03/13 04:56:17;;;;;;;8.75;5.80;;;16.00;58.20;;;;;;5028429;28;20028;-68
2022/03/13 04:58:42;;;;;;;7.28;4.78;;;16.00;58.30;;;;;;5028402;28;20056;-66
2022/03/13 05:01:08;;;;;;;10.30;5.53;;;16.00;58.20;;;;;;5028574;28;20057;-67
2022/03/13 05:03:34;;;;;;;9.75;5.63;;;16.00;58.20;;;;;;5028711;28;20626;-67
2022/03/13 05:06:05;;;;;;;8.45;5.05;;;16.00;58.00;;;;;;5028938;28;20099;-68
2022/03/13 05:08:32;;;;;;;7.65;4.97;;;16.00;58.20;;;;;;5028044;28;20109;-66
2022/03/13 05:10:59;;;;;;;16.88;6.10;;;16.00;57.20;;;;;;5028102;28;20107;-65
2022/03/13 05:13:26;;;;;;;14.23;9.75;;;15.10;52.80;;;;;;5031874;28;20039;-66
2022/03/13 05:15:52;;;;;;;20.75;13.48;;;14.60;52.10;;;;;;5032086;28;20104;-66
2022/03/13 05:18:19;;;;;;;20.35;11.93;;;14.10;51.80;;;;;;5032199;28;20567;-66
2022/03/13 05:20:45;;;;;;;17.38;12.48;;;13.90;51.40;;;;;;5031810;28;20064;-67
2022/03/13 05:23:11;;;;;;;15.82;12.00;;;13.70;51.40;;;;;;5031423;28;20049;-67
2022/03/13 05:25:38;;;;;;;18.70;13.13;;;13.60;51.00;;;;;;5031764;28;20539;-67
2022/03/13 05:28:05;;;;;;;17.80;13.27;;;13.50;51.20;;;;;;5030970;28;20036;-66
2022/03/13 05:30:35;;;;;;;19.55;13.18;;;13.50;50.70;;;;;;5031919;28;20026;-67
2022/03/13 05:33:01;;;;;;;16.58;12.35;;;13.40;50.70;;;;;;5031573;28;20033;-66
2022/03/13 05:35:27;;;;;;;26.48;13.23;;;13.30;50.50;;;;;;5027530;28;20216;-66
2022/03/13 05:37:53;;;;;;;20.10;14.02;;;13.30;50.20;;;;;;5029515;28;20108;-65
2022/03/13 05:40:20;;;;;;;18.55;13.13;;;13.30;50.00;;;;;;5031244;28;20030;-65
2022/03/13 05:42:49;;;;;;;18.95;12.05;;;13.40;50.00;;;;;;5031646;28;20547;-66
2022/03/13 05:45:19;;;;;;;16.58;12.00;;;13.30;49.80;;;;;;5028925;28;20029;-65
2022/03/13 05:47:48;;;;;;;20.55;12.77;;;13.30;49.80;;;;;;5031563;28;20059;-65
2022/03/13 05:50:16;;;;;;;20.83;12.80;;;13.20;49.60;;;;;;5021189;28;20149;-66
2022/03/13 05:52:43;;;;;;;16.40;11.85;;;13.20;49.80;;;;;;5031385;28;20076;-65
2022/03/13 05:55:09;;;;;;;17.27;11.90;;;13.10;49.40;;;;;;5030963;28;20025;-66
2022/03/13 05:57:35;;;;;;;16.55;12.45;;;13.10;49.60;;;;;;5031292;28;20119;-65
2022/03/13 06:00:03;;;;;;;18.55;12.48;;;13.00;49.40;;;;;;5030970;28;20420;-66
2022/03/13 06:02:28;;;;;;;20.67;11.73;;;13.10;49.30;;;;;;5029777;28;20045;-64
2022/03/13 06:04:54;;;;;;;20.35;12.73;;;12.90;49.30;;;;;;5030093;28;20479;-67
2022/03/13 06:07:20;;;;;;;20.35;12.13;;;13.00;49.60;;;;;;5029239;28;20487;-66
2022/03/13 06:09:46;;;;;;;19.08;12.00;;;13.70;49.40;;;;;;5030349;28;20052;-66
2022/03/13 06:12:17;;;;;;;15.18;11.13;;;14.20;49.20;;;;;;5029829;28;20025;-66
2022/03/13 06:14:43;;;;;;;17.17;10.40;;;14.50;49.20;;;;;;5026500;28;20049;-66
2022/03/13 06:17:09;;;;;;;18.42;11.05;;;14.70;49.40;;;;;;5029905;28;20033;-66
2022/03/13 06:19:39;;;;;;;16.85;11.27;;;14.80;49.70;;;;;;5030031;28;20031;-66
2022/03/13 06:22:05;;;;;;;16.50;10.10;;;14.90;50.00;;;;;;5029079;28;20038;-66
2022/03/13 06:24:32;;;;;;;23.85;11.65;;;14.90;50.20;;;;;;5028910;28;20014;-66
2022/03/13 06:26:58;;;;;;;15.48;10.55;;;15.00;50.40;;;;;;5028660;28;20029;-67
2022/03/13 06:29:24;;;;;;;14.32;9.82;;;15.10;50.60;;;;;;5028126;28;20029;-66
2022/03/13 06:31:52;;;;;;;18.25;9.73;;;15.10;50.60;;;;;;5028098;28;20072;-66
2022/03/13 06:34:18;;;;;;;20.08;11.00;;;15.10;50.80;;;;;;5028590;28;20037;-67
2022/03/13 06:36:45;;;;;;;18.52;10.00;;;15.20;51.10;;;;;;5028721;28;20476;-67
2022/03/13 06:39:10;;;;;;;14.98;8.82;;;15.20;51.10;;;;;;5028353;28;20048;-67
2022/03/13 06:41:38;;;;;;;13.30;8.40;;;15.20;51.20;;;;;;5028588;28;20021;-67
2022/03/13 06:44:04;;;;;;;15.18;9.32;;;15.20;51.50;;;;;;5028509;28;20025;-67
2022/03/13 06:46:30;;;;;;;16.35;9.30;;;15.30;51.50;;;;;;5028307;28;20038;-67
2022/03/13 06:48:56;;;;;;;14.88;9.50;;;15.30;51.70;;;;;;5029167;28;20048;-67
2022/03/13 06:51:21;;;;;;;15.77;9.25;;;15.30;51.80;;;;;;5028029;28;20037;-66
2022/03/13 06:53:48;;;;;;;12.10;8.85;;;15.40;52.00;;;;;;5027455;28;20480;-66
2022/03/13 06:56:13;;;;;;;10.52;7.57;;;15.40;52.20;;;;;;5027935;28;20022;-67
2022/03/13 06:58:41;;;;;;;11.88;7.88;;;15.40;52.30;;;;;;5027330;28;20071;-67
2022/03/13 07:01:06;;;;;;;15.90;8.48;;;15.40;52.30;;;;;;5028303;28;20026;-66
2022/03/13 07:03:33;;;;;;;11.63;7.72;;;15.40;52.30;;;;;;5027716;28;20044;-66
2022/03/13 07:05:58;;;;;;;11.43;7.65;;;15.40;52.50;;;;;;5027996;28;20116;-66
2022/03/13 07:08:24;;;;;;;13.77;8.07;;;15.50;52.70;;;;;;5027684;28;20657;-66
2022/03/13 07:10:50;;;;;;;13.35;8.00;;;15.50;52.80;;;;;;5028488;28;20037;-66
2022/03/13 07:13:18;;;;;;;12.63;7.55;;;15.50;53.00;;;;;;5027490;28;20945;-65
2022/03/13 07:15:44;;;;;;;13.85;7.30;;;15.50;53.20;;;;;;5028310;28;20017;-66
2022/03/13 07:18:09;;;;;;;12.15;7.90;;;15.50;53.30;;;;;;5027875;28;20036;-66
2022/03/13 07:20:35;;;;;;;14.88;8.10;;;15.50;53.40;;;;;;5028413;28;20827;-67
2022/03/13 07:23:00;;;;;;;9.90;6.80;;;15.50;53.60;;;;;;5027192;28;20041;-66
2022/03/13 07:25:26;;;;;;;12.32;7.50;;;15.60;53.70;;;;;;5026056;28;20479;-66
2022/03/13 07:27:52;;;;;;;11.63;6.93;;;15.60;53.70;;;;;;5028420;28;20877;-66
2022/03/13 07:30:17;;;;;;;12.55;6.95;;;15.60;54.00;;;;;;5028747;28;20022;-66
2022/03/13 07:32:44;;;;;;;11.02;6.82;;;15.70;53.90;;;;;;5028576;28;20083;-66
2022/03/13 07:35:10;;;;;;;12.10;5.88;;;15.70;53.80;;;;;;5027075;28;20022;-66
2022/03/13 07:37:36;;;;;;;14.73;6.72;;;15.70;53.20;;;;;;5027394;28;20032;-60
2022/03/13 07:40:03;;;;;;;13.75;6.65;;;15.70;54.30;;;;;;5027446;28;20041;-60
2022/03/13 07:42:28;;;;;;;15.73;7.10;;;15.80;54.10;;;;;;5027991;28;20067;-56
2022/03/13 07:44:54;;;;;;;13.70;7.20;;;15.90;54.20;;;;;;5027379;28;20025;-57
2022/03/13 07:47:19;;;;;;;18.38;6.90;;;15.90;54.30;;;;;;5027430;28;20108;-55
2022/03/13 07:49:45;;;;;;;14.55;6.63;;;15.90;54.60;;;;;;5028052;28;20101;-56
2022/03/13 07:52:11;;;;;;;11.02;6.05;;;16.00;54.90;;;;;;5028157;28;20078;-56
2022/03/13 07:54:37;;;;;;;12.50;6.45;;;16.00;55.20;;;;;;5026882;28;20045;-53
2022/03/13 07:57:03;;;;;;;16.60;6.15;;;16.10;55.30;;;;;;5027657;28;20028;-62
2022/03/13 07:59:29;;;;;;;12.80;6.57;;;16.10;55.40;;;;;;5027075;28;20468;-62
2022/03/13 08:01:55;;;;;;;19.73;9.20;;;16.10;55.40;;;;;;5025905;28;20020;-62
2022/03/13 08:04:20;;;;;;;20.35;10.02;;;15.40;48.10;;;;;;5026212;28;20070;-61
2022/03/13 08:06:46;;;;;;;27.02;11.30;;;14.50;47.00;;;;;;5027040;28;20119;-61
2022/03/13 08:09:12;;;;;;;18.38;10.88;;;14.00;47.00;;;;;;5027639;28;20018;-60
2022/03/13 08:11:38;;;;;;;19.63;11.02;;;13.80;46.30;;;;;;5027951;28;20064;-60
2022/03/13 08:14:04;;;;;;;18.48;10.95;;;13.60;46.00;;;;;;5027541;28;20419;-60
2022/03/13 08:16:30;;;;;;;26.33;11.40;;;13.60;46.00;;;;;;5028106;28;20021;-62
2022/03/13 08:18:56;;;;;;;21.63;10.57;;;13.50;45.60;;;;;;5018659;28;20125;-62
2022/03/13 08:21:21;;;;;;;18.67;11.90;;;13.40;45.60;;;;;;5027539;28;20108;-61
2022/03/13 08:23:48;;;;;;;15.55;11.23;;;13.40;45.60;;;;;;5027306;28;20471;-59
2022/03/13 08:26:13;;;;;;;18.48;11.70;;;13.40;45.50;;;;;;5027705;28;20021;-61
2022/03/13 08:28:41;;;;;;;18.83;11.82;;;13.30;45.50;;;;;;5026748;28;20083;-61
2022/03/13 08:31:07;;;;;;;18.60;12.23;;;13.10;44.80;;;;;;5027760;28;20080;-60
2022/03/13 08:33:33;;;;;;;15.07;11.15;;;12.70;45.80;;;;;;5027549;28;20037;-57
2022/03/13 08:35:59;;;;;;;19.33;11.05;;;12.50;45.70;;;;;;5028146;28;20021;-59
2022/03/13 08:38:25;;;;;;;15.73;10.73;;;13.10;46.00;;;;;;5015877;28;20028;-60
2022/03/13 08:40:50;;;;;;;16.92;11.10;;;14.00;45.40;;;;;;5015856;28;20096;-62
2022/03/13 08:43:16;;;;;;;20.02;9.55;;;14.60;45.20;;;;;;5007483;28;20052;-61
2022/03/13 08:45:42;;;;;;;12.52;8.95;;;15.10;45.00;;;;;;5022855;28;20045;-61
2022/03/13 08:48:08;;;;;;;18.48;9.55;;;15.80;44.00;;;;;;5031354;28;20024;-62
2022/03/13 08:50:34;;;;;;;16.75;8.88;;;16.30;43.70;;;;;;5030858;28;20029;-61
2022/03/13 08:53:01;;;;;;;15.50;8.75;;;16.60;43.60;;;;;;5020655;28;20029;-61
2022/03/13 08:55:27;;;;;;;15.10;8.95;;;16.80;44.10;;;;;;5019393;28;20112;-61
2022/03/13 08:57:53;;;;;;;12.98;8.93;;;17.00;44.30;;;;;;5030966;28;20026;-61
2022/03/13 09:00:18;;;;;;;16.35;7.30;;;17.10;44.40;;;;;;5030739;28;20044;-60
2022/03/13 09:02:45;;;;;;;14.63;8.93;;;17.20;45.20;;;;;;5030237;28;20036;-60
2022/03/13 09:05:11;;;;;;;14.32;8.73;;;17.30;45.30;;;;;;5030844;28;20071;-59
2022/03/13 09:07:37;;;;;;;16.50;7.32;;;17.40;45.60;;;;;;5023672;28;20030;-60
2022/03/13 09:10:05;;;;;;;18.20;7.47;;;17.60;45.80;;;;;;5011033;28;20477;-59
2022/03/13 09:12:31;;;;;;;21.92;7.53;;;17.60;46.50;;;;;;5026303;28;20083;-59
2022/03/13 09:14:58;;;;;;;13.45;6.65;;;17.60;47.00;;;;;;5029097;28;20026;-59
2022/03/13 09:17:23;;;;;;;9.57;6.60;;;17.70;48.00;;;;;;5029209;28;20029;-56
2022/03/13 09:19:49;;;;;;;13.98;6.60;;;17.70;48.20;;;;;;5027756;28;20059;-54
2022/03/13 09:22:17;;;;;;;12.20;7.10;;;17.60;48.50;;;;;;5030822;28;20079;-53
2022/03/13 09:24:45;;;;;;;13.80;6.50;;;17.60;48.80;;;;;;5023936;28;20443;-52
2022/03/13 09:27:11;;;;;;;9.93;6.05;;;17.70;49.80;;;;;;5029226;28;20032;-57
2022/03/13 09:29:37;;;;;;;10.13;6.55;;;17.80;49.30;;;;;;5030049;28;20029;-58
2022/03/13 09:32:03;;;;;;;9.38;5.70;;;17.80;49.50;;;;;;5029856;28;20123;-59
2022/03/13 09:34:28;;;;;;;12.80;5.55;;;17.80;49.70;;;;;;5029676;28;20060;-59
2022/03/13 09:36:54;;;;;;;9.25;5.07;;;17.90;49.90;;;;;;5030292;28;20121;-58
2022/03/13 09:39:20;;;;;;;9.82;5.22;;;18.00;50.00;;;;;;5029999;28;20025;-55
2022/03/13 09:41:45;;;;;;;8.55;5.50;;;18.00;50.00;;;;;;5029876;28;20035;-54
2022/03/13 09:44:11;;;;;;;8.50;5.18;;;18.10;50.10;;;;;;5030635;28;20064;-59
2022/03/13 09:46:38;;;;;;;11.63;5.35;;;18.30;50.00;;;;;;5025101;28;20364;-59
2022/03/13 09:49:03;;;;;;;14.63;5.47;;;18.50;49.50;;;;;;5020362;28;20041;-59
2022/03/13 09:51:29;;;;;;;10.80;5.25;;;18.40;49.80;;;;;;5017700;28;20071;-59
2022/03/13 09:53:55;;;;;;;9.13;5.55;;;18.50;50.20;;;;;;5018776;28;20037;-58
2022/03/13 09:56:20;;;;;;;8.68;4.75;;;18.50;50.50;;;;;;5010725;28;20443;-59
2022/03/13 09:58:46;;;;;;;12.77;4.78;;;18.50;51.10;;;;;;5016449;28;20029;-60
2022/03/13 10:01:12;;;;;;;10.60;4.65;;;18.40;51.20;;;;;;5028087;28;20068;-61
2022/03/13 10:03:38;;;;;;;16.08;4.80;;;18.50;51.00;;;;;;5015150;28;20026;-60
2022/03/13 10:06:04;;;;;;;9.15;4.85;;;18.50;51.50;;;;;;5011493;28;20021;-58
2022/03/13 10:08:31;;;;;;;10.65;4.53;;;18.60;51.60;;;;;;5014035;28;20514;-58
2022/03/13 10:10:58;;;;;;;8.45;4.18;;;18.70;51.30;;;;;;5015454;28;20030;-58
2022/03/13 10:13:46;;;;;;;9.02;4.38;;;18.70;51.30;;;;;;5013021;28;20144;-59
2022/03/13 10:16:21;;;;;;;9.00;4.25;;;18.50;51.50;;;;;;5017626;28;20026;-59
2022/03/13 10:18:46;;;;;;;9.60;3.83;;;18.50;51.70;;;;;;5023129;28;20056;-59
2022/03/13 10:21:16;;;;;;;8.52;4.10;;;18.50;52.00;;;;;;5022421;28;20491;-58
2022/03/13 10:23:47;;;;;;;15.18;4.68;;;18.50;51.90;;;;;;5019010;28;20108;-58
2022/03/13 10:26:16;;;;;;;10.68;3.78;;;18.50;52.00;;;;;;5023834;28;20531;-58
2022/03/13 10:28:42;;;;;;;7.15;3.55;;;18.60;52.00;;;;;;5018337;28;20395;-60
2022/03/13 10:31:15;;;;;;;8.73;3.65;;;18.70;52.00;;;;;;5020384;28;21151;-61
2022/03/13 10:33:44;;;;;;;8.10;4.53;;;18.70;51.80;;;;;;5022626;28;20045;-61
2022/03/13 10:36:37;;;;;;;7.35;4.55;;;18.80;51.70;;;;;;5022344;28;20026;-61
2022/03/13 10:39:10;;;;;;;6.55;3.67;;;18.80;51.70;;;;;;5020387;28;20021;-62
2022/03/13 10:41:45;;;;;;;6.75;4.15;;;18.80;51.90;;;;;;5020272;28;20036;-61
2022/03/13 10:44:16;;;;;;;9.23;3.97;;;18.70;52.00;;;;;;5021654;28;20125;-61
2022/03/13 10:46:44;;;;;;;6.63;3.13;;;18.80;51.90;;;;;;5018943;28;20071;-60
2022/03/13 10:49:10;;;;;;;8.30;4.00;;;18.90;52.00;;;;;;5022276;28;20040;-61
2022/03/13 10:51:45;;;;;;;7.68;4.03;;;19.00;51.90;;;;;;5021787;28;20052;-61
2022/03/13 10:54:26;;;;;;;6.30;3.67;;;19.10;51.70;;;;;;5021602;28;20042;-61
2022/03/13 10:57:06;;;;;;;10.55;4.05;;;19.10;51.70;;;;;;5020692;28;20021;-61
2022/03/13 10:59:32;;;;;;;8.15;3.53;;;19.10;51.70;;;;;;5019208;28;20112;-61
2022/03/13 11:02:15;;;;;;;6.53;3.83;;;19.10;52.00;;;;;;5020293;28;20104;-61
2022/03/13 11:04:50;;;;;;;7.95;3.65;;;19.00;52.20;;;;;;5019643;28;20034;-61
2022/03/13 11:07:16;;;;;;;8.82;3.83;;;19.10;52.30;;;;;;5020191;28;20026;-59
2022/03/13 11:09:42;;;;;;;5.82;3.08;;;19.10;52.50;;;;;;5017377;28;20037;-59
2022/03/13 11:12:17;;;;;;;6.90;3.63;;;19.00;52.50;;;;;;5021753;28;20094;-60
2022/03/13 11:14:47;;;;;;;6.80;3.97;;;19.00;52.60;;;;;;5020806;28;20029;-60
2022/03/13 11:17:14;;;;;;;6.18;3.40;;;19.10;52.60;;;;;;5020760;28;20060;-60
2022/03/13 11:19:40;;;;;;;6.82;3.15;;;19.20;52.70;;;;;;5019354;28;20033;-59
2022/03/13 11:22:09;;;;;;;5.85;3.30;;;19.30;53.20;;;;;;5018963;28;20095;-58
2022/03/13 11:24:36;;;;;;;6.95;2.95;;;19.30;52.70;;;;;;5027598;28;20037;-59
2022/03/13 11:27:04;;;;;;;7.40;3.28;;;19.30;52.80;;;;;;5024941;28;20030;-60
2022/03/13 11:29:44;;;;;;;8.13;2.90;;;19.30;52.80;;;;;;5027358;28;20021;-60
2022/03/13 11:32:40;;;;;;;5.55;3.03;;;19.40;52.80;;;;;;5025007;28;20080;-60
2022/03/13 11:35:15;;;;;;;6.95;3.42;;;19.40;52.80;;;;;;5028217;28;20708;-61
2022/03/13 11:37:43;;;;;;;9.02;3.42;;;19.40;52.70;;;;;;5028304;28;20035;-61
2022/03/13 11:40:10;;;;;;;6.32;3.47;;;19.50;52.70;;;;;;5028392;28;20033;-61
2022/03/13 11:42:54;;;;;;;5.90;3.20;;;19.50;53.40;;;;;;5026808;28;20099;-60
2022/03/13 11:45:33;;;;;;;6.15;3.65;;;19.50;52.70;;;;;;5023861;28;20021;-61
2022/03/13 11:48:04;;;;;;;6.78;3.20;;;19.50;52.60;;;;;;5027925;28;20025;-60
2022/03/13 11:50:50;;;;;;;5.18;3.08;;;19.60;52.60;;;;;;5026834;28;20032;-60
2022/03/13 11:53:16;;;;;;;5.93;2.60;;;19.60;52.50;;;;;;5027531;28;20041;-60
2022/03/13 11:56:00;;;;;;;5.75;2.67;;;19.60;52.60;;;;;;5027915;28;20025;-60
2022/03/13 11:58:40;;;;;;;7.82;2.80;;;19.70;52.60;;;;;;5026688;28;20061;-61
2022/03/13 12:01:07;;;;;;;5.25;2.80;;;19.70;52.50;;;;;;5027861;28;20488;-60
2022/03/13 12:03:33;;;;;;;7.47;2.92;;;19.80;52.40;;;;;;5027275;28;20069;-60
2022/03/13 12:05:59;;;;;;;6.35;3.30;;;19.70;52.50;;;;;;5027687;28;20060;-61
2022/03/13 12:09:05;;;;;;;6.35;3.15;;;19.80;52.60;;;;;;5026579;28;20593;-59
2022/03/13 12:11:39;;;;;;;4.78;2.70;;;19.80;52.50;;;;;;5012533;28;20017;-61
2022/03/13 12:14:07;;;;;;;6.90;2.88;;;19.80;52.50;;;;;;5017006;28;20467;-61
2022/03/13 12:16:36;;;;;;;6.60;3.67;;;19.80;52.50;;;;;;5027364;28;20025;-61
2022/03/13 12:19:03;;;;;;;9.30;3.47;;;19.90;52.50;;;;;;5027179;28;20079;-62
2022/03/13 12:21:31;;;;;;;6.13;2.95;;;19.90;52.30;;;;;;5030055;28;20151;-61
2022/03/13 12:24:13;;;;;;;5.57;2.88;;;19.90;52.50;;;;;;5018131;28;20034;-61
2022/03/13 12:26:39;;;;;;;7.22;3.20;;;19.80;52.50;;;;;;5030723;28;20037;-60
2022/03/13 12:29:06;;;;;;;5.15;2.40;;;19.90;52.70;;;;;;5030733;28;20101;-62
2022/03/13 12:31:39;;;;;;;6.45;2.90;;;20.00;52.50;;;;;;5030565;28;20488;-61
2022/03/13 12:34:05;;;;;;;8.23;2.95;;;20.10;52.40;;;;;;5031468;28;20047;-62
2022/03/13 12:36:49;;;;;;;8.13;3.55;;;20.10;52.20;;;;;;5031370;28;20392;-60
2022/03/13 12:39:16;;;;;;;9.77;2.85;;;20.10;52.40;;;;;;5030035;28;20083;-60
2022/03/13 12:41:44;;;;;;;10.15;3.88;;;20.10;52.70;;;;;;5029925;28;20044;-60
2022/03/13 12:44:12;;;;;;;9.07;3.10;;;20.20;52.90;;;;;;5031084;28;20166;-60